Time;durP1;ratioP1;P1;durP2;ratioP2;P2;SDS_P1;SDS_P2;PMS_P1;PMS_P2;Temp;Humidity;BMP_temperature;BMP_pressure;BME280_temperature;BME280_humidity;BME280_pressure;Samples;Min_cycle;Max_cycle;Signal;HPM_P1;HPM_P2
2023/01/03 00:01:25;;;;;;;12.75;5.28;;;;;;;;;;5034190;28;20689;-73
2023/01/03 00:03:55;;;;;;;15.80;5.13;;;;;;;;;;5056070;28;20039;-73
2023/01/03 00:06:22;;;;;;;14.05;5.82;;;;;;;;;;5040361;28;20893;-73
2023/01/03 00:08:48;;;;;;;11.65;4.82;;;;;;;;;;5042705;28;20523;-73
2023/01/03 00:11:16;;;;;;;13.07;5.88;;;;;;;;;;5067522;28;20048;-73
2023/01/03 00:13:42;;;;;;;9.93;4.97;;;;;;;;;;5070479;28;20032;-72
2023/01/03 00:16:16;;;;;;;16.88;6.05;;;;;;;;;;5056289;28;20043;-72
2023/01/03 00:18:42;;;;;;;26.63;7.47;;;;;;;;;;5056242;28;20036;-71
2023/01/03 00:21:08;;;;;;;16.95;5.50;;;;;;;;;;5034379;28;20160;-72
2023/01/03 00:23:34;;;;;;;11.13;6.22;;;;;;;;;;5019350;28;20040;-72
2023/01/03 00:26:07;;;;;;;14.77;6.20;;;;;;;;;;5036823;28;20048;-72
2023/01/03 00:28:33;;;;;;;19.35;7.43;;;;;;;;;;5033301;28;20046;-72
2023/01/03 00:31:04;;;;;;;22.25;6.43;;;;;;;;;;5034249;28;20167;-71
2023/01/03 00:33:31;;;;;;;20.15;6.72;;;;;;;;;;5054532;28;20113;-71
2023/01/03 00:36:00;;;;;;;14.20;6.00;;;;;;;;;;5035042;28;20112;-71
2023/01/03 00:38:26;;;;;;;11.77;5.60;;;;;;;;;;5023046;28;20088;-72
2023/01/03 00:40:52;;;;;;;10.55;4.75;;;;;;;;;;5053230;28;20047;-72
2023/01/03 00:43:27;;;;;;;16.92;5.00;;;;;;;;;;5033776;28;20095;-72
2023/01/03 00:45:53;;;;;;;7.70;4.07;;;;;;;;;;5018426;28;20090;-72
2023/01/03 00:48:19;;;;;;;8.40;3.88;;;;;;;;;;5020259;28;20048;-71
2023/01/03 00:50:45;;;;;;;17.38;4.97;;;;;;;;;;5048160;28;20049;-72
2023/01/03 00:53:12;;;;;;;11.60;4.80;;;;;;;;;;5050346;28;20131;-71
2023/01/03 00:55:38;;;;;;;11.02;4.63;;;;;;;;;;5033183;28;20048;-72
2023/01/03 00:58:05;;;;;;;16.23;4.45;;;;;;;;;;5034730;28;20079;-71
2023/01/03 01:00:31;;;;;;;8.95;4.68;;;;;;;;;;5030225;28;20044;-72
2023/01/03 01:02:57;;;;;;;10.20;4.57;;;;;;;;;;5053411;28;20048;-72
2023/01/03 01:05:23;;;;;;;7.63;4.07;;;;;;;;;;5035750;28;20044;-73
2023/01/03 01:07:49;;;;;;;9.73;4.03;;;;;;;;;;5054535;28;20492;-72
2023/01/03 01:10:18;;;;;;;9.05;3.97;;;;;;;;;;5034474;28;20603;-73
2023/01/03 01:12:44;;;;;;;7.35;3.58;;;;;;;;;;5053001;28;20040;-73
2023/01/03 01:15:11;;;;;;;9.75;3.72;;;;;;;;;;5035225;28;20059;-73
2023/01/03 01:17:37;;;;;;;9.30;3.88;;;;;;;;;;5033996;28;20729;-73
2023/01/03 01:20:04;;;;;;;5.15;2.50;;;;;;;;;;5035274;28;20036;-73
2023/01/03 01:22:30;;;;;;;8.25;3.13;;;;;;;;;;5036306;28;20044;-73
2023/01/03 01:24:56;;;;;;;8.18;2.70;;;;;;;;;;5020559;28;20165;-73
2023/01/03 01:27:22;;;;;;;7.30;2.67;;;;;;;;;;5037168;28;20052;-73
2023/01/03 01:29:48;;;;;;;6.80;2.05;;;;;;;;;;5034279;28;20056;-73
2023/01/03 01:32:14;;;;;;;2.72;1.67;;;;;;;;;;5034593;28;20159;-73
2023/01/03 01:34:40;;;;;;;10.77;2.25;;;;;;;;;;5031995;28;20146;-73
2023/01/03 01:37:06;;;;;;;5.05;2.08;;;;;;;;;;5034939;28;20089;-73
2023/01/03 01:39:33;;;;;;;4.95;2.05;;;;;;;;;;5018655;28;20047;-73
2023/01/03 01:44:44;;;;;;;7.20;2.10;;;;;;;;;;5035059;28;20048;-72
2023/01/03 01:47:14;;;;;;;7.93;1.77;;;;;;;;;;5034558;28;20051;-73
2023/01/03 01:49:41;;;;;;;8.52;2.35;;;;;;;;;;5034661;28;20504;-73
2023/01/03 01:52:07;;;;;;;7.65;1.50;;;;;;;;;;5032309;28;20052;-73
2023/01/03 01:54:33;;;;;;;7.03;1.77;;;;;;;;;;5037475;28;20067;-73
2023/01/03 01:56:59;;;;;;;7.78;1.80;;;;;;;;;;5035399;28;20125;-72
2023/01/03 01:59:27;;;;;;;3.88;1.55;;;;;;;;;;5042044;28;20047;-72
2023/01/03 02:01:53;;;;;;;4.85;1.40;;;;;;;;;;5050662;28;20276;-72
2023/01/03 02:04:22;;;;;;;9.07;1.77;;;;;;;;;;5034142;28;20055;-73
2023/01/03 02:06:48;;;;;;;11.07;1.60;;;;;;;;;;5051663;28;21339;-73
2023/01/03 02:09:14;;;;;;;4.75;1.85;;;;;;;;;;5034572;28;20072;-73
2023/01/03 02:15:16;;;;;;;7.75;1.52;;;;;;;;;;4953976;28;20049;-73
2023/01/03 02:17:52;;;;;;;6.63;2.00;;;;;;;;;;5029722;28;21544;-73
2023/01/03 02:20:33;;;;;;;10.93;2.03;;;;;;;;;;5051864;28;20048;-73
2023/01/03 02:23:15;;;;;;;5.55;1.70;;;;;;;;;;5030862;28;20093;-73
2023/01/03 02:25:41;;;;;;;11.77;2.65;;;;;;;;;;5014176;28;20087;-73
2023/01/03 02:28:10;;;;;;;4.57;1.60;;;;;;;;;;5030529;28;20400;-73
2023/01/03 02:30:52;;;;;;;7.20;1.88;;;;;;;;;;5027785;28;20048;-73
2023/01/03 02:33:32;;;;;;;4.47;1.90;;;;;;;;;;5028859;28;20047;-73
2023/01/03 02:36:01;;;;;;;15.13;1.92;;;;;;;;;;5028923;28;20068;-73
2023/01/03 02:38:46;;;;;;;6.15;1.75;;;;;;;;;;5031470;28;20083;-73
2023/01/03 02:41:26;;;;;;;7.05;1.75;;;;;;;;;;5030324;28;20060;-71
2023/01/03 02:44:00;;;;;;;19.35;2.55;;;;;;;;;;5017274;28;20572;-72
2023/01/03 02:46:26;;;;;;;8.57;2.73;;;;;;;;;;5030883;28;20094;-72
2023/01/03 02:48:58;;;;;;;10.55;3.28;;;;;;;;;;5030783;28;20048;-72
2023/01/03 02:51:51;;;;;;;11.93;3.33;;;;;;;;;;5041893;28;20182;-72
2023/01/03 02:54:23;;;;;;;5.38;2.80;;;;;;;;;;5024251;28;21044;-73
2023/01/03 02:56:59;;;;;;;13.35;3.53;;;;;;;;;;5014297;28;20063;-73
2023/01/03 02:59:32;;;;;;;10.13;3.10;;;;;;;;;;5008866;28;20277;-73
2023/01/03 03:02:00;;;;;;;10.37;3.53;;;;;;;;;;5010365;28;20132;-73
2023/01/03 03:04:26;;;;;;;14.57;3.58;;;;;;;;;;5012744;28;20052;-73
2023/01/03 03:06:52;;;;;;;9.38;3.45;;;;;;;;;;5012308;28;20890;-73
2023/01/03 03:09:18;;;;;;;9.45;3.72;;;;;;;;;;5012483;28;20079;-73
2023/01/03 03:14:34;;;;;;;11.45;3.50;;;;;;;;;;5011408;28;20142;-72
2023/01/03 03:17:03;;;;;;;9.77;3.53;;;;;;;;;;5011831;28;20099;-72
2023/01/03 03:25:15;;;;;;;10.45;3.50;;;;;;;;;;5019777;28;20043;-72
2023/01/03 03:30:28;;;;;;;11.20;4.40;;;;;;;;;;5029874;28;20181;-72
2023/01/03 03:32:55;;;;;;;9.20;4.55;;;;;;;;;;5013351;28;20048;-72
2023/01/03 03:35:24;;;;;;;13.38;4.65;;;;;;;;;;5015766;28;20059;-72
2023/01/03 03:37:53;;;;;;;12.75;4.80;;;;;;;;;;5014735;28;20907;-72
2023/01/03 03:46:05;;;;;;;12.18;4.47;;;;;;;;;;5021692;28;21320;-72
2023/01/03 03:51:29;;;;;;;13.73;5.25;;;;;;;;;;5030458;28;20053;-72
2023/01/03 03:53:56;;;;;;;16.10;5.05;;;;;;;;;;5033261;28;20761;-72
2023/01/03 03:56:30;;;;;;;12.30;4.78;;;;;;;;;;5049131;28;21437;-72
2023/01/03 03:58:59;;;;;;;10.23;4.32;;;;;;;;;;5052527;28;20132;-72
2023/01/03 04:01:26;;;;;;;8.13;4.53;;;;;;;;;;5031572;28;20032;-72
2023/01/03 04:03:54;;;;;;;15.20;4.72;;;;;;;;;;5031562;28;20037;-72
2023/01/03 04:06:22;;;;;;;15.88;4.65;;;;;;;;;;5052041;28;20050;-72
2023/01/03 04:08:48;;;;;;;17.63;4.75;;;;;;;;;;5031484;28;20032;-71
2023/01/03 04:11:14;;;;;;;13.13;4.13;;;;;;;;;;5034641;28;20453;-72
2023/01/03 04:13:40;;;;;;;8.57;4.25;;;;;;;;;;5031731;28;20047;-72
2023/01/03 04:16:07;;;;;;;11.30;4.20;;;;;;;;;;5033525;28;20066;-72
2023/01/03 04:18:33;;;;;;;9.25;4.70;;;;;;;;;;5015980;28;20131;-72
2023/01/03 04:20:59;;;;;;;14.45;4.25;;;;;;;;;;5022084;28;20443;-72
2023/01/03 04:23:25;;;;;;;18.52;4.22;;;;;;;;;;5023309;28;20056;-72
2023/01/03 04:25:51;;;;;;;12.00;4.10;;;;;;;;;;5018094;28;20095;-71
2023/01/03 04:28:18;;;;;;;6.55;3.70;;;;;;;;;;5014769;28;20126;-71
2023/01/03 04:30:44;;;;;;;10.98;4.82;;;;;;;;;;5016998;28;20126;-71
2023/01/03 04:33:10;;;;;;;9.70;4.35;;;;;;;;;;5035234;28;20168;-72
2023/01/03 04:35:37;;;;;;;12.75;4.47;;;;;;;;;;5017093;28;20036;-72
2023/01/03 04:38:03;;;;;;;9.00;4.00;;;;;;;;;;5014627;28;20037;-72
2023/01/03 04:40:29;;;;;;;6.68;4.00;;;;;;;;;;5033001;28;20044;-71
2023/01/03 04:45:40;;;;;;;;;;;;;;;;;;5035455;28;20049;-72
2023/01/03 04:48:06;;;;;;;17.90;6.22;;;;;;;;;;5031322;28;19951;-72
2023/01/03 04:50:32;;;;;;;14.30;4.88;;;;;;;;;;5034452;28;20036;-72
2023/01/03 04:52:58;;;;;;;13.25;6.13;;;;;;;;;;5029834;28;20052;-72
2023/01/03 04:55:25;;;;;;;11.88;5.75;;;;;;;;;;5033394;28;20397;-72
2023/01/03 04:57:51;;;;;;;12.98;5.80;;;;;;;;;;5032326;28;20052;-72
2023/01/03 05:00:17;;;;;;;14.75;5.20;;;;;;;;;;5029678;28;20044;-72
2023/01/03 05:02:44;;;;;;;25.48;5.95;;;;;;;;;;5015935;28;20079;-72
2023/01/03 05:05:10;;;;;;;20.60;6.93;;;;;;;;;;5045089;28;20431;-72
2023/01/03 05:07:36;;;;;;;12.10;6.75;;;;;;;;;;5032242;28;20040;-72
2023/01/03 05:10:02;;;;;;;10.32;6.90;;;;;;;;;;5043191;28;20051;-72
2023/01/03 05:12:28;;;;;;;11.38;6.40;;;;;;;;;;5034240;28;20056;-72
2023/01/03 05:14:54;;;;;;;11.93;6.47;;;;;;;;;;5003684;28;20037;-72
2023/01/03 05:17:21;;;;;;;15.68;8.07;;;;;;;;;;5032201;28;20594;-72
2023/01/03 05:28:22;;;;;;;16.40;10.32;;;;;;;;;;5010309;28;20279;-72
2023/01/03 05:30:49;;;;;;;28.92;9.68;;;;;;;;;;5015857;28;20072;-72
2023/01/03 05:33:15;;;;;;;20.88;9.18;;;;;;;;;;5025622;28;20086;-73
2023/01/03 05:35:44;;;;;;;18.05;8.75;;;;;;;;;;5035393;28;20103;-72
2023/01/03 05:38:10;;;;;;;20.80;10.32;;;;;;;;;;5036027;28;20052;-73
2023/01/03 05:40:36;;;;;;;19.27;11.18;;;;;;;;;;5034429;28;20047;-72
2023/01/03 05:43:02;;;;;;;23.38;10.75;;;;;;;;;;5039717;28;20059;-72
2023/01/03 05:45:28;;;;;;;20.75;11.15;;;;;;;;;;5033892;28;20036;-72
2023/01/03 05:47:57;;;;;;;23.98;11.00;;;;;;;;;;5022481;28;20044;-72
2023/01/03 05:50:23;;;;;;;20.50;11.40;;;;;;;;;;5033010;28;20040;-72
2023/01/03 05:52:49;;;;;;;21.55;11.82;;;;;;;;;;5040213;28;20048;-72
2023/01/03 05:55:15;;;;;;;30.88;12.63;;;;;;;;;;5036729;28;20047;-72
2023/01/03 05:57:42;;;;;;;22.23;12.75;;;;;;;;;;5024941;28;20044;-72
2023/01/03 06:00:08;;;;;;;25.88;12.40;;;;;;;;;;5018875;28;20040;-72
2023/01/03 06:02:34;;;;;;;29.67;14.38;;;;;;;;;;5020617;28;20045;-72
2023/01/03 06:05:00;;;;;;;33.70;14.05;;;;;;;;;;5029788;28;20519;-73
2023/01/03 06:07:28;;;;;;;21.50;12.48;;;;;;;;;;5016501;28;20142;-73
2023/01/03 06:09:54;;;;;;;26.75;12.75;;;;;;;;;;5034360;28;20194;-72
2023/01/03 06:12:20;;;;;;;21.88;12.30;;;;;;;;;;5049284;28;20087;-73
2023/01/03 06:14:46;;;;;;;21.45;12.32;;;;;;;;;;5029666;28;20051;-72
2023/01/03 06:19:57;;;;;;;23.60;13.05;;;;;;;;;;5050158;28;20044;-72
2023/01/03 06:22:23;;;;;;;27.17;14.65;;;;;;;;;;5052617;28;20040;-72
2023/01/03 06:24:49;;;;;;;25.10;15.07;;;;;;;;;;5044090;28;20062;-73
2023/01/03 06:27:15;;;;;;;24.20;13.18;;;;;;;;;;5034711;28;20071;-72
2023/01/03 06:29:41;;;;;;;28.60;14.43;;;;;;;;;;5032644;28;20039;-72
2023/01/03 06:32:08;;;;;;;25.98;13.90;;;;;;;;;;5022144;28;20102;-72
2023/01/03 06:34:34;;;;;;;30.23;15.13;;;;;;;;;;5035371;28;20101;-72
2023/01/03 06:37:00;;;;;;;24.73;15.15;;;;;;;;;;5040141;28;20035;-72
2023/01/03 06:39:26;;;;;;;30.00;13.98;;;;;;;;;;5036213;28;20045;-73
2023/01/03 06:41:52;;;;;;;29.88;15.18;;;;;;;;;;5029245;28;20082;-74
2023/01/03 06:44:18;;;;;;;25.75;12.85;;;;;;;;;;5015325;28;21649;-73
2023/01/03 06:55:12;;;;;;;28.58;15.02;;;;;;;;;;5035329;28;20094;-73
2023/01/03 06:57:38;;;;;;;24.70;14.32;;;;;;;;;;5034067;28;20473;-73
2023/01/03 07:00:04;;;;;;;28.08;14.98;;;;;;;;;;5026040;28;20376;-73
2023/01/03 07:02:30;;;;;;;31.83;15.18;;;;;;;;;;5056365;28;20036;-74
2023/01/03 07:04:56;;;;;;;23.98;14.00;;;;;;;;;;5066572;28;20048;-73
2023/01/03 07:07:22;;;;;;;28.33;14.90;;;;;;;;;;5060100;28;20723;-74
2023/01/03 07:09:49;;;;;;;25.75;14.50;;;;;;;;;;5070777;28;20052;-73
2023/01/03 07:15:03;;;;;;;29.65;14.65;;;;;;;;;;5057740;28;20071;-73
2023/01/03 07:17:29;;;;;;;26.77;13.63;;;;;;;;;;5056625;28;20132;-73
2023/01/03 07:19:55;;;;;;;29.48;16.70;;;;;;;;;;5057526;28;20044;-73
2023/01/03 07:22:21;;;;;;;26.92;14.57;;;;;;;;;;5058346;28;20047;-73
2023/01/03 07:24:47;;;;;;;31.15;16.83;;;;;;;;;;5058327;28;20458;-73
2023/01/03 07:27:13;;;;;;;30.90;16.83;;;;;;;;;;5046820;28;20040;-73
2023/01/03 07:29:39;;;;;;;29.25;16.25;;;;;;;;;;5056397;28;20044;-73
2023/01/03 07:32:05;;;;;;;29.55;16.90;;;;;;;;;;5045897;28;20048;-74
2023/01/03 07:34:31;;;;;;;32.13;17.92;;;;;;;;;;5037956;28;20127;-74
2023/01/03 07:36:57;;;;;;;28.30;16.30;;;;;;;;;;5038899;28;20040;-74
2023/01/03 07:39:23;;;;;;;28.92;15.38;;;;;;;;;;5055978;28;20047;-74
2023/01/03 07:44:34;;;;;;;33.80;18.70;;;;;;;;;;5070209;28;20052;-75
2023/01/03 07:47:00;;;;;;;28.33;16.40;;;;;;;;;;5066806;28;20349;-74
2023/01/03 07:49:29;;;;;;;32.97;17.35;;;;;;;;;;5047618;28;20135;-74
2023/01/03 07:51:55;;;;;;;27.83;16.45;;;;;;;;;;5044312;28;20068;-75
2023/01/03 07:54:21;;;;;;;28.00;16.30;;;;;;;;;;5063248;28;20373;-75
2023/01/03 07:56:47;;;;;;;31.95;16.40;;;;;;;;;;5078579;28;20048;-74
2023/01/03 07:59:14;;;;;;;28.73;16.92;;;;;;;;;;5060005;28;20051;-74
2023/01/03 08:01:40;;;;;;;37.90;16.95;;;;;;;;;;5061948;28;20049;-75
2023/01/03 08:04:06;;;;;;;27.52;16.60;;;;;;;;;;5064745;28;20702;-75
2023/01/03 08:06:32;;;;;;;28.70;16.85;;;;;;;;;;5063769;28;20055;-75
2023/01/03 08:14:27;;;;;;;34.83;18.23;;;;;;;;;;5061873;28;20059;-75
2023/01/03 08:16:54;;;;;;;40.08;19.55;;;;;;;;;;5062636;28;20050;-74
2023/01/03 08:19:20;;;;;;;43.53;19.52;;;;;;;;;;5061600;28;20210;-74
2023/01/03 08:21:46;;;;;;;38.40;19.88;;;;;;;;;;5062984;28;20052;-74
2023/01/03 08:24:12;;;;;;;36.20;19.13;;;;;;;;;;5061977;28;20109;-75
2023/01/03 08:26:38;;;;;;;37.38;18.80;;;;;;;;;;5063593;28;20114;-73
2023/01/03 08:29:05;;;;;;;36.22;18.05;;;;;;;;;;5055906;28;20048;-73
2023/01/03 08:31:32;;;;;;;34.30;17.60;;;;;;;;;;5055104;28;20052;-72
2023/01/03 08:34:00;;;;;;;36.28;19.77;;;;;;;;;;5057705;28;20044;-71
2023/01/03 08:36:27;;;;;;;35.38;18.73;;;;;;;;;;5036233;28;20088;-72
2023/01/03 08:38:58;;;;;;;33.05;18.13;;;;;;;;;;5053809;28;20131;-72
2023/01/03 08:41:26;;;;;;;33.90;18.95;;;;;;;;;;5054344;28;20489;-73
2023/01/03 08:43:53;;;;;;;36.92;18.02;;;;;;;;;;5054697;28;20076;-72
2023/01/03 08:46:19;;;;;;;35.65;18.92;;;;;;;;;;5063639;28;20171;-73
2023/01/03 08:48:46;;;;;;;34.35;19.65;;;;;;;;;;5069040;28;20051;-72
2023/01/03 08:51:12;;;;;;;46.97;21.73;;;;;;;;;;5064393;28;20052;-72
2023/01/03 08:53:38;;;;;;;33.00;18.95;;;;;;;;;;5037178;28;20045;-72
2023/01/03 08:56:05;;;;;;;41.53;20.63;;;;;;;;;;5038094;28;20055;-72
2023/01/03 08:58:31;;;;;;;39.75;19.13;;;;;;;;;;5037480;28;20071;-72
2023/01/03 09:01:01;;;;;;;41.90;19.75;;;;;;;;;;5040425;28;20032;-72
2023/01/03 09:03:27;;;;;;;35.97;19.85;;;;;;;;;;5055026;28;20063;-73
2023/01/03 09:05:53;;;;;;;38.00;19.88;;;;;;;;;;5053047;28;20046;-73
2023/01/03 09:08:20;;;;;;;39.22;19.33;;;;;;;;;;5038507;28;20067;-73
2023/01/03 09:10:47;;;;;;;32.75;18.50;;;;;;;;;;5053882;28;20052;-75
2023/01/03 09:13:13;;;;;;;33.88;18.73;;;;;;;;;;5043471;28;20078;-74
2023/01/03 09:15:39;;;;;;;34.38;19.65;;;;;;;;;;5058328;28;20557;-73
2023/01/03 09:18:06;;;;;;;33.47;19.48;;;;;;;;;;5042561;28;20375;-73
2023/01/03 09:20:32;;;;;;;34.63;19.35;;;;;;;;;;5052492;28;20059;-73
2023/01/03 09:22:58;;;;;;;38.15;20.42;;;;;;;;;;5053910;28;20040;-72
2023/01/03 09:25:24;;;;;;;39.03;21.42;;;;;;;;;;5054560;28;20092;-73
2023/01/03 09:27:50;;;;;;;33.13;18.23;;;;;;;;;;5056037;28;20054;-73
2023/01/03 09:30:17;;;;;;;38.03;20.02;;;;;;;;;;5054534;28;20535;-73
2023/01/03 09:32:44;;;;;;;34.80;18.33;;;;;;;;;;5055576;28;20382;-73
2023/01/03 09:35:10;;;;;;;35.75;19.27;;;;;;;;;;5051591;28;20990;-73
2023/01/03 09:37:36;;;;;;;35.20;20.20;;;;;;;;;;5045142;28;20098;-73
2023/01/03 09:40:03;;;;;;;33.05;19.73;;;;;;;;;;5051380;28;20377;-72
2023/01/03 09:45:17;;;;;;;31.15;19.30;;;;;;;;;;5049382;28;20049;-72
2023/01/03 09:47:44;;;;;;;32.33;18.20;;;;;;;;;;5048519;28;20195;-73
2023/01/03 09:50:16;;;;;;;37.42;20.58;;;;;;;;;;5053751;28;20141;-72
2023/01/03 10:04:29;;;;;;;45.65;24.85;;;;;;;;;;5048218;28;20139;-73
2023/01/03 10:07:15;;;;;;;34.33;23.30;;;;;;;;;;5029131;28;20043;-72
2023/01/03 10:09:54;;;;;;;36.17;24.02;;;;;;;;;;5057934;28;20052;-72
2023/01/03 10:12:29;;;;;;;29.95;20.80;;;;;;;;;;5052062;28;20044;-72
2023/01/03 10:14:58;;;;;;;30.60;20.60;;;;;;;;;;5040618;28;20066;-72
2023/01/03 10:17:39;;;;;;;26.33;15.05;;;;;;;;;;5040780;28;20373;-72
2023/01/03 10:20:14;;;;;;;99.75;19.80;;;;;;;;;;5055808;28;20433;-72
2023/01/03 10:22:41;;;;;;;59.28;19.88;;;;;;;;;;5058278;28;20047;-72
2023/01/03 10:25:07;;;;;;;110.93;18.80;;;;;;;;;;5068125;28;20055;-72
2023/01/03 10:27:34;;;;;;;99.80;20.83;;;;;;;;;;5069346;28;20770;-72
2023/01/03 10:30:02;;;;;;;78.63;17.15;;;;;;;;;;5053851;28;20518;-72
2023/01/03 10:32:48;;;;;;;68.60;20.85;;;;;;;;;;5053769;28;20045;-73
2023/01/03 10:35:32;;;;;;;69.30;21.70;;;;;;;;;;5052965;28;20053;-73
2023/01/03 10:37:58;;;;;;;53.95;17.95;;;;;;;;;;5030926;28;21895;-73
2023/01/03 10:40:32;;;;;;;64.55;24.50;;;;;;;;;;5055602;28;20123;-72
2023/01/03 10:42:59;;;;;;;84.35;26.30;;;;;;;;;;5036575;28;20047;-73
2023/01/03 10:45:25;;;;;;;66.43;25.40;;;;;;;;;;5053798;28;20130;-73
2023/01/03 10:47:58;;;;;;;62.47;27.10;;;;;;;;;;5054757;28;20052;-72
2023/01/03 10:50:25;;;;;;;78.90;26.73;;;;;;;;;;5052535;28;20063;-72
2023/01/03 10:52:59;;;;;;;76.57;27.60;;;;;;;;;;5026231;28;20103;-72
2023/01/03 10:55:25;;;;;;;77.05;26.55;;;;;;;;;;5046966;28;20036;-72
2023/01/03 10:58:14;;;;;;;91.78;28.38;;;;;;;;;;5067108;28;20053;-72
2023/01/03 11:00:41;;;;;;;85.30;27.17;;;;;;;;;;5049046;28;20743;-73
2023/01/03 11:03:12;;;;;;;93.78;30.67;;;;;;;;;;5069208;28;20672;-72
2023/01/03 11:05:40;;;;;;;130.02;30.35;;;;;;;;;;5050736;28;20093;-72
2023/01/03 11:08:13;;;;;;;88.13;30.50;;;;;;;;;;5050667;28;21798;-73
2023/01/03 11:10:56;;;;;;;105.72;32.28;;;;;;;;;;5051632;28;20084;-73
2023/01/03 11:13:23;;;;;;;89.05;31.13;;;;;;;;;;5033425;28;20502;-73
2023/01/03 11:15:53;;;;;;;108.93;32.47;;;;;;;;;;5045437;28;20043;-73
2023/01/03 11:18:19;;;;;;;95.43;33.17;;;;;;;;;;5047306;28;20131;-73
2023/01/03 11:20:48;;;;;;;91.75;34.90;;;;;;;;;;5032231;28;20129;-73
2023/01/03 11:23:16;;;;;;;105.93;36.90;;;;;;;;;;5051664;28;21506;-73
2023/01/03 11:25:42;;;;;;;113.80;36.03;;;;;;;;;;5046458;28;20838;-74
2023/01/03 11:28:08;;;;;;;113.32;38.92;;;;;;;;;;5046771;28;20085;-73
2023/01/03 11:30:46;;;;;;;109.55;37.83;;;;;;;;;;5031043;28;20132;-74
2023/01/03 11:33:25;;;;;;;107.88;39.08;;;;;;;;;;5046037;28;20045;-74
2023/01/03 11:36:01;;;;;;;112.28;39.88;;;;;;;;;;5049057;28;20050;-73
2023/01/03 11:38:36;;;;;;;125.70;42.40;;;;;;;;;;5033150;28;20481;-74
2023/01/03 11:41:21;;;;;;;118.28;41.42;;;;;;;;;;5044159;28;20136;-74
2023/01/03 11:43:56;;;;;;;126.15;43.92;;;;;;;;;;5032377;28;21658;-74
2023/01/03 11:46:41;;;;;;;131.10;45.22;;;;;;;;;;5049064;28;20040;-74
2023/01/03 11:49:13;;;;;;;128.98;46.75;;;;;;;;;;5036073;28;20087;-73
2023/01/03 11:51:58;;;;;;;123.20;45.55;;;;;;;;;;5035716;28;20048;-74
2023/01/03 11:54:43;;;;;;;117.82;44.90;;;;;;;;;;5038451;28;20045;-74
2023/01/03 11:57:09;;;;;;;;;;;;;;;;;;5054146;28;21788;-73
2023/01/03 11:59:51;;;;;;;112.93;45.03;;;;;;;;;;5055489;28;19924;-74
2023/01/03 12:02:30;;;;;;;105.30;43.70;;;;;;;;;;5057858;28;20052;-73
2023/01/03 12:05:16;;;;;;;96.70;41.38;;;;;;;;;;5066427;28;20785;-75
2023/01/03 12:07:48;;;;;;;98.13;40.35;;;;;;;;;;5064442;28;20060;-73
2023/01/03 12:10:14;;;;;;;97.90;45.03;;;;;;;;;;5066678;28;20048;-74
2023/01/03 12:13:10;;;;;;;92.45;41.60;;;;;;;;;;5055936;28;20373;-74
2023/01/03 12:15:50;;;;;;;92.75;38.30;;;;;;;;;;5046914;28;20686;-74
2023/01/03 12:18:20;;;;;;;82.18;39.15;;;;;;;;;;5050085;28;20051;-73
2023/01/03 12:20:58;;;;;;;83.38;36.53;;;;;;;;;;5054303;28;20075;-74
2023/01/03 12:23:40;;;;;;;83.88;37.17;;;;;;;;;;5035106;28;20058;-72
2023/01/03 12:26:08;;;;;;;77.55;34.97;;;;;;;;;;5050926;28;20247;-73
2023/01/03 12:28:38;;;;;;;84.15;39.67;;;;;;;;;;5039969;28;20123;-74
2023/01/03 12:31:24;;;;;;;85.63;39.97;;;;;;;;;;5052480;28;20071;-73
2023/01/03 12:33:59;;;;;;;81.13;40.30;;;;;;;;;;5040976;28;20086;-73
2023/01/03 12:36:41;;;;;;;87.47;40.55;;;;;;;;;;5052649;28;20032;-72
2023/01/03 12:39:26;;;;;;;80.95;38.35;;;;;;;;;;5052619;28;20118;-73
2023/01/03 12:41:52;;;;;;;83.25;37.85;;;;;;;;;;5052255;28;20049;-74
2023/01/03 12:44:48;;;;;;;89.95;40.17;;;;;;;;;;5051211;28;20131;-74
2023/01/03 12:47:26;;;;;;;84.47;38.75;;;;;;;;;;5037169;28;20056;-74
2023/01/03 12:50:17;;;;;;;97.40;42.88;;;;;;;;;;5034164;28;20087;-73
2023/01/03 12:52:44;;;;;;;96.40;45.25;;;;;;;;;;5051031;28;20282;-73
2023/01/03 12:55:23;;;;;;;93.13;39.95;;;;;;;;;;5054857;28;20441;-73
2023/01/03 12:57:55;;;;;;;87.60;38.85;;;;;;;;;;5032561;28;20064;-74
2023/01/03 13:00:40;;;;;;;90.47;42.80;;;;;;;;;;5047298;28;20045;-73
2023/01/03 13:03:16;;;;;;;89.72;38.42;;;;;;;;;;5055081;28;20048;-74
2023/01/03 13:05:46;;;;;;;81.60;37.20;;;;;;;;;;5058323;28;20044;-73
2023/01/03 13:08:31;;;;;;;93.53;40.67;;;;;;;;;;5058167;28;20044;-74
2023/01/03 13:11:00;;;;;;;87.25;39.17;;;;;;;;;;5059075;28;20075;-74
2023/01/03 13:13:27;;;;;;;79.53;39.83;;;;;;;;;;5042920;28;20041;-74
2023/01/03 13:15:53;;;;;;;81.78;37.67;;;;;;;;;;5061281;28;20231;-74
2023/01/03 13:18:23;;;;;;;84.60;39.67;;;;;;;;;;5058282;28;20068;-74
2023/01/03 13:20:53;;;;;;;79.75;36.45;;;;;;;;;;5049444;28;20032;-74
2023/01/03 13:23:36;;;;;;;77.93;34.53;;;;;;;;;;5058002;28;20087;-75
2023/01/03 13:26:05;;;;;;;77.00;34.30;;;;;;;;;;5057907;28;20174;-73
2023/01/03 13:28:33;;;;;;;87.15;39.38;;;;;;;;;;5074689;28;21652;-74
2023/01/03 13:31:17;;;;;;;80.68;38.70;;;;;;;;;;5046335;28;20055;-74
2023/01/03 13:34:02;;;;;;;82.72;38.33;;;;;;;;;;5057234;28;20040;-74
2023/01/03 13:36:48;;;;;;;82.05;39.22;;;;;;;;;;5057567;28;20519;-74
2023/01/03 13:39:34;;;;;;;81.00;38.00;;;;;;;;;;5056603;28;20040;-74
2023/01/03 13:42:00;;;;;;;68.57;34.28;;;;;;;;;;5058025;28;20047;-74
2023/01/03 13:44:32;;;;;;;69.05;34.53;;;;;;;;;;5068143;28;21637;-74
2023/01/03 13:46:58;;;;;;;69.13;34.47;;;;;;;;;;5078859;28;20036;-74
2023/01/03 13:49:26;;;;;;;64.38;32.28;;;;;;;;;;5084568;28;20085;-74
2023/01/03 13:51:52;;;;;;;65.53;30.60;;;;;;;;;;5072026;28;20075;-74
2023/01/03 13:54:18;;;;;;;65.38;33.47;;;;;;;;;;5069144;28;20469;-74
2023/01/03 13:56:44;;;;;;;65.90;31.92;;;;;;;;;;5051430;28;20075;-74
2023/01/03 13:59:14;;;;;;;63.40;33.40;;;;;;;;;;5054161;28;20122;-74
2023/01/03 14:01:58;;;;;;;51.38;29.73;;;;;;;;;;5054099;28;20641;-74
2023/01/03 14:04:24;;;;;;;;;;;;;;;;;;5040531;28;20401;-74
2023/01/03 14:07:02;;;;;;;58.85;30.13;;;;;;;;;;5054658;28;19920;-74
2023/01/03 14:09:49;;;;;;;57.50;29.35;;;;;;;;;;5051572;28;20653;-73
2023/01/03 14:12:24;;;;;;;55.65;28.30;;;;;;;;;;5033938;28;20060;-73
2023/01/03 14:14:57;;;;;;;52.67;28.50;;;;;;;;;;5051427;28;20050;-72
2023/01/03 14:17:31;;;;;;;52.85;28.83;;;;;;;;;;5050896;28;20052;-73
2023/01/03 14:19:59;;;;;;;50.78;28.10;;;;;;;;;;5049805;28;20553;-73
2023/01/03 14:22:55;;;;;;;58.20;27.95;;;;;;;;;;5045498;28;20575;-72
2023/01/03 14:25:47;;;;;;;49.65;27.83;;;;;;;;;;5013917;28;20097;-73
2023/01/03 14:28:24;;;;;;;55.80;29.70;;;;;;;;;;5040384;28;21687;-73
2023/01/03 14:31:01;;;;;;;42.45;23.77;;;;;;;;;;5044431;28;20178;-73
2023/01/03 14:33:49;;;;;;;48.45;23.63;;;;;;;;;;5045702;28;20511;-73
2023/01/03 14:36:16;;;;;;;46.42;25.65;;;;;;;;;;5047236;28;20070;-73
2023/01/03 14:38:49;;;;;;;48.10;23.63;;;;;;;;;;5029860;28;20044;-73
2023/01/03 14:41:26;;;;;;;48.53;25.63;;;;;;;;;;5046580;28;20096;-73
2023/01/03 14:44:03;;;;;;;47.40;24.00;;;;;;;;;;5046699;28;20131;-73
2023/01/03 14:46:29;;;;;;;47.70;23.45;;;;;;;;;;5046089;28;20044;-73
2023/01/03 14:49:00;;;;;;;41.50;24.23;;;;;;;;;;5047009;28;20040;-72
2023/01/03 14:51:26;;;;;;;43.38;23.17;;;;;;;;;;5028833;28;20056;-74
2023/01/03 14:53:53;;;;;;;49.88;26.05;;;;;;;;;;5033794;28;20106;-74
2023/01/03 14:56:22;;;;;;;38.65;21.48;;;;;;;;;;5050037;28;20063;-73
2023/01/03 14:58:49;;;;;;;42.85;23.55;;;;;;;;;;5052284;28;20040;-73
2023/01/03 15:01:15;;;;;;;39.75;23.25;;;;;;;;;;5019819;28;20052;-73
2023/01/03 15:03:43;;;;;;;42.80;23.75;;;;;;;;;;5049029;28;20040;-73
2023/01/03 15:06:29;;;;;;;42.33;24.15;;;;;;;;;;5049557;28;20519;-74
2023/01/03 15:08:57;;;;;;;42.53;23.67;;;;;;;;;;5048465;28;20036;-73
2023/01/03 15:11:34;;;;;;;49.50;24.42;;;;;;;;;;5053866;28;20044;-72
2023/01/03 15:14:05;;;;;;;41.28;22.73;;;;;;;;;;5050977;28;20791;-74
2023/01/03 15:16:35;;;;;;;43.40;22.50;;;;;;;;;;5049994;28;20677;-74
2023/01/03 15:19:14;;;;;;;50.85;24.25;;;;;;;;;;5048741;28;20040;-73
2023/01/03 15:21:40;;;;;;;48.45;24.90;;;;;;;;;;5052988;28;20232;-73
2023/01/03 15:24:18;;;;;;;46.97;23.60;;;;;;;;;;5054457;28;20067;-73
2023/01/03 15:26:45;;;;;;;45.90;24.05;;;;;;;;;;5037861;28;20393;-74
2023/01/03 15:29:19;;;;;;;44.80;24.40;;;;;;;;;;5051561;28;20563;-74
2023/01/03 15:31:45;;;;;;;47.65;25.05;;;;;;;;;;5076159;28;20046;-74
2023/01/03 15:34:13;;;;;;;50.17;24.48;;;;;;;;;;5076326;28;20055;-73
2023/01/03 15:36:40;;;;;;;47.80;24.55;;;;;;;;;;5071171;28;20063;-73
2023/01/03 15:39:07;;;;;;;49.40;25.08;;;;;;;;;;5064127;28;20041;-73
2023/01/03 15:44:19;;;;;;;49.25;27.42;;;;;;;;;;5057138;28;20048;-73
2023/01/03 15:46:47;;;;;;;48.80;24.60;;;;;;;;;;5055222;28;20044;-73
2023/01/03 15:49:15;;;;;;;47.60;26.92;;;;;;;;;;5052962;28;20429;-75
2023/01/03 15:51:41;;;;;;;41.40;25.15;;;;;;;;;;5051795;28;20189;-74
2023/01/03 15:54:12;;;;;;;53.85;26.63;;;;;;;;;;5047057;28;20056;-73
2023/01/03 15:56:43;;;;;;;46.55;25.45;;;;;;;;;;5041485;28;20048;-74